Terminal Aerodrome Forecast
Issued by NWS Omaha/Valley, NE

Home | Current Version | Previous Version | Graphics & Text | Print | Product List | Glossary On
Versions: 1 2 3 4 5 6 7 8 9 10 11 12 13 14 15 16 17 18 19 20 21 22 23 24 25 26 27 28 29 30 31 32 33 34 35
000
FTUS43 KOAX 110248 AAB
TAFOFK
TAF AMD
KOFK 110248Z 1103/1124 04008KT P6SM SCT009 BKN025
      TEMPO 1103/1105 BKN009
     FM110500 03007KT P6SM SCT008 OVC025
      TEMPO 1108/1112 3SM BR OVC008
     FM111600 16008KT 6SM BR OVC015
     FM112100 18012KT P6SM OVC025=

USA.gov is the U.S. government's official web portal to all federal, state and local government web resources and services.